createdAt,value
2019-03-28T00:01:53.568Z,13.13
2019-03-28T00:04:24.885Z,13.30
2019-03-28T00:06:56.153Z,13.93
2019-03-28T00:09:27.422Z,14.27
2019-03-28T00:11:58.679Z,14.27
2019-03-28T00:14:29.870Z,14.60
2019-03-28T00:17:01.103Z,15.03
2019-03-28T00:19:32.414Z,15.20
2019-03-28T00:22:05.682Z,14.90
2019-03-28T00:24:44.821Z,15.03
2019-03-28T00:27:15.959Z,15.97
2019-03-28T00:29:47.171Z,14.27
2019-03-28T00:32:18.654Z,14.07
2019-03-28T00:34:49.982Z,15.10
2019-03-28T00:37:21.242Z,15.47
2019-03-28T00:39:54.902Z,14.80
2019-03-28T00:42:25.909Z,14.27
2019-03-28T00:44:57.240Z,15.23
2019-03-28T00:47:28.418Z,15.00
2019-03-28T00:49:59.751Z,15.17
2019-03-28T00:52:31.165Z,15.90
2019-03-28T00:55:03.486Z,15.47
2019-03-28T00:57:34.816Z,13.97
2019-03-28T01:00:06.528Z,15.00
2019-03-28T01:02:37.792Z,15.73
2019-03-28T01:05:09.367Z,15.50
2019-03-28T01:07:40.742Z,14.87
2019-03-28T01:10:12.742Z,16.33
2019-03-28T01:12:46.513Z,16.57
2019-03-28T01:15:17.753Z,15.23
2019-03-28T01:17:50.259Z,15.10
2019-03-28T01:20:21.438Z,16.10
2019-03-28T01:22:52.699Z,15.87
2019-03-28T01:25:24.080Z,14.87
2019-03-28T01:27:55.475Z,15.33
2019-03-28T01:30:26.738Z,15.63
2019-03-28T01:32:57.945Z,15.60
2019-03-28T01:35:29.287Z,17.23
2019-03-28T01:38:00.492Z,16.33
2019-03-28T01:40:31.818Z,15.97
2019-03-28T01:43:03.025Z,16.83
2019-03-28T01:45:34.247Z,16.17
2019-03-28T01:48:05.551Z,16.37
2019-03-28T01:50:36.812Z,15.47
2019-03-28T01:53:07.994Z,15.37
2019-03-28T01:55:39.319Z,17.47
2019-03-28T01:58:10.595Z,16.23
2019-03-28T02:00:41.812Z,15.67
2019-03-28T02:03:13.110Z,16.77
2019-03-28T02:05:44.365Z,16.80
2019-03-28T02:08:15.626Z,17.00
2019-03-28T02:10:46.711Z,15.77
2019-03-28T02:13:18.019Z,15.53
2019-03-28T02:15:49.236Z,15.53
2019-03-28T02:18:20.373Z,16.00
2019-03-28T02:20:51.765Z,17.17
2019-03-28T02:23:22.945Z,15.67
2019-03-28T02:25:54.143Z,17.57
2019-03-28T02:28:25.419Z,16.43
2019-03-28T02:30:56.658Z,17.00
2019-03-28T02:33:28.016Z,17.30
2019-03-28T02:35:59.176Z,16.40
2019-03-28T02:38:30.290Z,16.20
2019-03-28T02:41:01.573Z,17.37
2019-03-28T02:43:32.668Z,15.13
2019-03-28T02:46:03.947Z,16.83
2019-03-28T02:48:35.237Z,17.50
2019-03-28T02:51:06.492Z,17.40
2019-03-28T02:53:37.761Z,17.50
2019-03-28T02:56:09.034Z,17.77
2019-03-28T02:58:40.206Z,18.83
2019-03-28T03:01:11.439Z,17.47
2019-03-28T03:03:42.725Z,17.73
2019-03-28T03:06:14.032Z,18.20
2019-03-28T03:08:45.233Z,16.93
2019-03-28T03:11:16.535Z,19.03
2019-03-28T03:13:47.763Z,18.07
2019-03-28T03:16:18.950Z,18.90
2019-03-28T03:18:50.220Z,17.67
2019-03-28T03:21:21.452Z,17.40
2019-03-28T03:23:52.579Z,20.10
2019-03-28T03:26:23.832Z,19.27
2019-03-28T03:28:55.122Z,19.07
2019-03-28T03:31:26.424Z,18.73
2019-03-28T03:33:57.772Z,19.37
2019-03-28T03:36:29.035Z,18.03
2019-03-28T03:39:00.313Z,19.50
2019-03-28T03:41:31.562Z,18.57
2019-03-28T03:44:02.648Z,18.33
2019-03-28T03:46:33.985Z,18.00
2019-03-28T03:49:05.256Z,17.77
2019-03-28T03:51:36.400Z,18.80
2019-03-28T03:54:07.837Z,17.33
2019-03-28T03:56:39.054Z,17.23
2019-03-28T03:59:10.247Z,18.50
2019-03-28T04:01:41.395Z,18.03
2019-03-28T04:04:12.640Z,19.53
2019-03-28T04:06:43.806Z,18.43
2019-03-28T04:09:15.096Z,18.80
2019-03-28T04:11:46.251Z,17.43
2019-03-28T04:14:17.497Z,17.77
2019-03-28T04:16:48.826Z,18.03
2019-03-28T04:19:20.088Z,17.40
2019-03-28T04:21:51.390Z,16.97
2019-03-28T04:24:22.706Z,18.57
2019-03-28T04:26:54.015Z,19.20
2019-03-28T04:29:25.180Z,17.90
2019-03-28T04:31:56.456Z,17.60
2019-03-28T04:34:27.753Z,18.43
2019-03-28T04:36:59.027Z,18.80
2019-03-28T04:39:30.304Z,18.20
2019-03-28T04:42:01.636Z,18.30
2019-03-28T04:44:32.844Z,17.30
2019-03-28T04:47:04.092Z,18.50
2019-03-28T04:49:35.256Z,19.23
2019-03-28T04:52:06.448Z,18.77
2019-03-28T04:54:37.678Z,19.67
2019-03-28T04:57:08.898Z,18.50
2019-03-28T04:59:40.160Z,17.77
2019-03-28T05:02:11.359Z,18.40
2019-03-28T05:04:42.614Z,19.30
2019-03-28T05:07:13.893Z,17.73
2019-03-28T05:09:45.055Z,19.23
2019-03-28T05:12:16.307Z,18.80
2019-03-28T05:14:47.470Z,18.50
2019-03-28T05:17:18.715Z,19.03
2019-03-28T05:19:50.024Z,19.03
2019-03-28T05:22:21.427Z,18.87
2019-03-28T05:24:53.536Z,19.20
2019-03-28T05:27:24.744Z,18.00
2019-03-28T05:29:55.878Z,19.77
2019-03-28T05:32:27.099Z,18.70
2019-03-28T05:34:58.464Z,18.63
2019-03-28T05:37:29.810Z,18.70
2019-03-28T05:40:01.090Z,19.60
2019-03-28T05:42:32.312Z,19.00
2019-03-28T05:45:03.559Z,20.17
2019-03-28T05:47:34.749Z,20.13
2019-03-28T05:50:06.730Z,19.47
2019-03-28T05:52:38.025Z,20.60
2019-03-28T05:55:09.361Z,20.57
2019-03-28T05:57:40.719Z,21.37
2019-03-28T06:00:12.238Z,19.13
2019-03-28T06:02:43.473Z,20.23
2019-03-28T06:05:14.702Z,19.80
2019-03-28T06:07:45.944Z,20.03
2019-03-28T06:10:17.185Z,20.60
2019-03-28T06:12:48.458Z,21.47
2019-03-28T06:15:19.714Z,20.03
2019-03-28T06:17:50.989Z,18.83
2019-03-28T06:20:22.063Z,21.00
2019-03-28T06:22:54.795Z,20.43
2019-03-28T06:25:26.017Z,20.63
2019-03-28T06:27:57.219Z,21.07
2019-03-28T06:30:28.497Z,24.37
2019-03-28T06:32:59.805Z,21.60
2019-03-28T06:35:31.006Z,21.33
2019-03-28T06:38:02.308Z,20.07
2019-03-28T06:40:33.598Z,20.80
2019-03-28T06:43:04.736Z,20.80
2019-03-28T06:45:36.094Z,19.47
2019-03-28T06:48:07.383Z,19.47
2019-03-28T06:50:38.621Z,20.80
2019-03-28T06:53:09.831Z,20.57
2019-03-28T06:55:41.037Z,20.37
2019-03-28T06:58:12.332Z,21.03
2019-03-28T07:00:45.230Z,20.47
2019-03-28T07:03:16.514Z,23.93
2019-03-28T07:05:48.420Z,35.40
2019-03-28T07:08:19.743Z,36.43
2019-03-28T07:10:51.038Z,24.70
2019-03-28T07:13:22.232Z,24.00
2019-03-28T07:15:53.535Z,23.37
2019-03-28T07:18:24.757Z,23.00
2019-03-28T07:20:56.014Z,21.03
2019-03-28T07:23:27.383Z,23.87
2019-03-28T07:25:58.711Z,24.40
2019-03-28T07:28:29.919Z,23.23
2019-03-28T07:31:01.161Z,25.67
2019-03-28T07:33:32.507Z,23.77
2019-03-28T07:36:03.766Z,26.20
2019-03-28T07:38:35.045Z,26.07
2019-03-28T07:41:06.165Z,26.63
2019-03-28T07:43:37.402Z,26.40
2019-03-28T07:46:08.707Z,25.13
2019-03-28T07:48:39.941Z,23.80
2019-03-28T07:51:11.213Z,25.20
2019-03-28T07:53:42.464Z,23.07
2019-03-28T07:56:13.786Z,23.00
2019-03-28T07:58:45.067Z,25.27
2019-03-28T08:01:18.067Z,25.00
2019-03-28T08:03:49.399Z,24.73
2019-03-28T08:06:20.838Z,23.20
2019-03-28T08:08:52.106Z,19.90
2019-03-28T08:11:23.316Z,21.80
2019-03-28T08:13:54.634Z,22.47
2019-03-28T08:16:28.742Z,22.77
2019-03-28T08:18:58.952Z,19.47
2019-03-28T08:21:30.252Z,19.40
2019-03-28T08:24:01.656Z,20.10
2019-03-28T08:26:33.019Z,19.97
2019-03-28T08:29:04.296Z,21.10
2019-03-28T08:31:36.569Z,20.70
2019-03-28T08:34:07.844Z,20.37
2019-03-28T08:36:39.458Z,20.47
2019-03-28T08:39:10.693Z,21.10
2019-03-28T08:41:41.996Z,17.50
2019-03-28T08:44:13.287Z,16.47
2019-03-28T08:46:44.509Z,16.33
2019-03-28T08:49:16.078Z,13.60
2019-03-28T08:51:47.299Z,16.13
2019-03-28T08:54:18.471Z,13.93
2019-03-28T08:56:49.762Z,11.33
2019-03-28T08:59:20.945Z,11.23
2019-03-28T09:02:10.971Z,11.63
2019-03-28T09:04:42.196Z,11.23
2019-03-28T09:07:13.408Z,8.77
2019-03-28T09:09:44.621Z,10.17
2019-03-28T09:12:35.403Z,10.13
2019-03-28T09:15:09.164Z,11.10
2019-03-28T09:17:40.443Z,8.50
2019-03-28T09:20:12.030Z,10.00
2019-03-28T09:22:43.327Z,11.87
2019-03-28T09:25:14.885Z,12.43
2019-03-28T09:27:46.199Z,10.83
2019-03-28T09:30:46.722Z,11.70
2019-03-28T09:33:06.663Z,11.63
2019-03-28T09:35:38.091Z,12.20
2019-03-28T09:38:09.522Z,13.93
2019-03-28T09:40:40.676Z,13.90
2019-03-28T09:43:11.899Z,10.80
2019-03-28T09:45:43.177Z,11.73
2019-03-28T09:48:14.459Z,10.47
2019-03-28T09:50:45.653Z,11.67
2019-03-28T09:53:16.896Z,13.00
2019-03-28T09:55:48.209Z,11.10
2019-03-28T09:58:20.344Z,10.80
2019-03-28T10:01:02.883Z,10.93
2019-03-28T10:03:25.266Z,10.60
2019-03-28T10:05:56.566Z,10.17
2019-03-28T10:08:27.863Z,9.87
2019-03-28T10:10:59.131Z,9.80
2019-03-28T10:13:30.358Z,9.60
2019-03-28T10:16:01.584Z,11.13
2019-03-28T10:18:34.628Z,8.67
2019-03-28T10:21:05.941Z,10.63
2019-03-28T10:23:39.666Z,10.40
2019-03-28T10:26:10.179Z,10.10
2019-03-28T10:28:41.422Z,10.43
2019-03-28T10:31:16.657Z,10.03
2019-03-28T10:33:45.987Z,10.27
2019-03-28T10:36:17.196Z,10.53
2019-03-28T10:38:48.564Z,10.30
2019-03-28T10:41:19.784Z,10.73
2019-03-28T10:43:51.060Z,10.60
2019-03-28T10:46:22.341Z,10.00
2019-03-28T10:48:54.604Z,11.00
2019-03-28T10:51:25.927Z,9.93
2019-03-28T10:53:57.204Z,11.43
2019-03-28T10:56:28.417Z,9.50
2019-03-28T10:58:59.802Z,9.27
2019-03-28T11:01:47.516Z,9.37
2019-03-28T11:04:04.105Z,9.03
2019-03-28T11:06:35.372Z,8.63
2019-03-28T11:09:08.618Z,8.13
2019-03-28T11:11:40.024Z,8.70
2019-03-28T11:14:11.341Z,9.17
2019-03-28T11:16:42.698Z,7.50
2019-03-28T11:19:15.774Z,8.80
2019-03-28T11:21:46.954Z,7.67
2019-03-28T11:24:18.166Z,9.30
2019-03-28T11:26:51.646Z,7.93
2019-03-28T11:29:22.968Z,7.73
2019-03-28T11:31:54.195Z,9.33
2019-03-28T11:34:25.377Z,8.27
2019-03-28T11:36:56.700Z,7.97
2019-03-28T11:39:27.933Z,7.67
2019-03-28T11:42:00.501Z,7.63
2019-03-28T11:44:31.883Z,8.27
2019-03-28T11:47:03.342Z,7.40
2019-03-28T11:49:34.852Z,6.57
2019-03-28T11:52:05.994Z,7.13
2019-03-28T11:54:38.737Z,7.70
2019-03-28T11:57:10.062Z,7.40
2019-03-28T11:59:41.340Z,6.80
2019-03-28T12:02:19.540Z,7.27
2019-03-28T12:04:45.696Z,7.87
2019-03-28T12:07:17.033Z,8.03
2019-03-28T12:09:48.322Z,7.77
2019-03-28T12:12:19.523Z,6.20
2019-03-28T12:14:50.774Z,7.63
2019-03-28T12:17:22.021Z,6.73
2019-03-28T12:19:53.331Z,8.43
2019-03-28T12:22:24.595Z,9.13
2019-03-28T12:24:56.202Z,7.90
2019-03-28T12:27:27.463Z,8.00
2019-03-28T12:29:58.871Z,8.13
2019-03-28T12:32:30.149Z,6.53
2019-03-28T12:35:01.316Z,7.63
2019-03-28T12:37:32.616Z,7.87
2019-03-28T12:40:03.946Z,9.10
2019-03-28T12:42:35.180Z,7.73
2019-03-28T12:45:08.554Z,7.13
2019-03-28T12:47:42.695Z,6.90
2019-03-28T12:50:13.803Z,6.13
2019-03-28T12:52:45.185Z,6.77
2019-03-28T12:55:16.546Z,5.80
2019-03-28T12:57:48.495Z,6.50
2019-03-28T13:00:35.423Z,6.83
2019-03-28T13:03:06.843Z,5.80
2019-03-28T13:05:39.014Z,7.30
2019-03-28T13:08:10.490Z,7.33
2019-03-28T13:10:41.747Z,7.27
2019-03-28T13:13:13.045Z,6.63
2019-03-28T13:15:44.309Z,6.87
2019-03-28T13:18:15.522Z,7.00
2019-03-28T13:20:46.838Z,6.97
2019-03-28T13:23:18.174Z,5.87
2019-03-28T13:25:49.343Z,5.67
2019-03-28T13:28:20.581Z,6.70
2019-03-28T13:30:51.899Z,7.43
2019-03-28T13:33:23.531Z,7.07
2019-03-28T13:35:54.646Z,7.13
2019-03-28T13:38:25.933Z,7.10
2019-03-28T13:40:57.171Z,6.13
2019-03-28T13:43:28.278Z,6.00
2019-03-28T13:45:59.489Z,7.03
2019-03-28T13:48:30.869Z,7.17
2019-03-28T13:51:02.172Z,6.70
2019-03-28T13:53:39.542Z,7.60
2019-03-28T13:56:06.468Z,7.10
2019-03-28T13:58:37.774Z,7.30
2019-03-28T14:01:09.034Z,7.50
2019-03-28T14:03:40.229Z,7.00
2019-03-28T14:06:11.508Z,6.23
2019-03-28T14:08:42.733Z,6.43
2019-03-28T14:11:14.070Z,5.83
2019-03-28T14:13:45.332Z,5.70
2019-03-28T14:16:16.624Z,5.40
2019-03-28T14:18:47.946Z,5.97
2019-03-28T14:21:19.203Z,5.80
2019-03-28T14:23:50.486Z,6.50
2019-03-28T14:26:21.786Z,6.27
2019-03-28T14:28:53.055Z,5.63
2019-03-28T14:31:24.209Z,5.90
2019-03-28T14:33:55.466Z,5.53
2019-03-28T14:36:26.743Z,5.57
2019-03-28T14:38:58.034Z,5.47
2019-03-28T14:41:29.217Z,5.67
2019-03-28T14:44:00.484Z,5.50
2019-03-28T14:46:31.782Z,5.77
2019-03-28T14:49:03.065Z,5.77
2019-03-28T14:51:34.544Z,6.50
2019-03-28T14:54:05.899Z,6.23
2019-03-28T14:56:37.451Z,5.90
2019-03-28T14:59:10.374Z,5.73
2019-03-28T15:01:41.643Z,5.90
2019-03-28T15:04:12.872Z,6.73
2019-03-28T15:06:44.166Z,6.40
2019-03-28T15:09:15.447Z,7.63
2019-03-28T15:11:46.612Z,7.40
2019-03-28T15:14:17.943Z,6.63
2019-03-28T15:16:49.277Z,6.53
2019-03-28T15:19:20.559Z,6.67
2019-03-28T15:21:51.766Z,6.03
2019-03-28T15:24:23.100Z,6.40
2019-03-28T15:26:54.446Z,5.47
2019-03-28T15:29:25.634Z,5.50
2019-03-28T15:31:56.903Z,5.67
2019-03-28T15:34:28.094Z,5.47
2019-03-28T15:36:59.489Z,5.00
2019-03-28T15:39:31.614Z,5.10
2019-03-28T15:42:03.163Z,5.67
2019-03-28T15:44:34.424Z,4.87
2019-03-28T15:47:05.761Z,4.15
2019-03-28T15:49:37.024Z,5.03
2019-03-28T15:52:08.232Z,4.80
2019-03-28T15:54:39.534Z,4.50
2019-03-28T15:57:10.679Z,4.43
2019-03-28T15:59:41.862Z,4.00
2019-03-28T16:02:13.101Z,4.43
2019-03-28T16:04:44.375Z,3.93
2019-03-28T16:07:15.625Z,4.33
2019-03-28T16:09:46.987Z,4.53
2019-03-28T16:12:18.293Z,4.80
2019-03-28T16:14:49.609Z,4.90
2019-03-28T16:17:21.656Z,4.73
2019-03-28T16:19:53.301Z,4.57
2019-03-28T16:22:24.538Z,4.70
2019-03-28T16:24:55.890Z,4.90
2019-03-28T16:27:27.118Z,4.42
2019-03-28T16:29:58.402Z,4.40
2019-03-28T16:32:29.584Z,4.53
2019-03-28T16:35:00.823Z,3.80
2019-03-28T16:37:32.051Z,4.27
2019-03-28T16:40:03.993Z,3.67
2019-03-28T16:42:35.246Z,3.83
2019-03-28T16:45:07.747Z,3.43
2019-03-28T16:47:39.036Z,2.50
2019-03-28T16:50:10.657Z,3.23
2019-03-28T16:52:41.875Z,2.80
2019-03-28T16:55:25.581Z,2.97
2019-03-28T16:57:46.113Z,2.40
2019-03-28T17:00:18.025Z,2.20
2019-03-28T17:02:49.284Z,2.40
2019-03-28T17:05:20.520Z,2.37
2019-03-28T17:07:52.445Z,2.43
2019-03-28T17:10:54.641Z,2.33
2019-03-28T17:13:26.198Z,1.97
2019-03-28T17:15:57.474Z,2.80
2019-03-28T17:18:28.700Z,3.20
2019-03-28T17:21:00.070Z,2.80
2019-03-28T17:23:31.364Z,2.27
2019-03-28T17:26:02.631Z,2.40
2019-03-28T17:28:33.898Z,2.07
2019-03-28T17:31:05.271Z,2.53
2019-03-28T17:33:36.596Z,2.53
2019-03-28T17:36:07.974Z,2.97
2019-03-28T17:38:39.186Z,2.72
2019-03-28T17:41:10.467Z,2.20
2019-03-28T17:43:42.087Z,2.53
2019-03-28T17:46:13.409Z,2.40
2019-03-28T17:48:44.727Z,3.07
2019-03-28T17:51:16.039Z,2.80
2019-03-28T17:53:47.371Z,3.07
2019-03-28T17:56:18.757Z,3.63
2019-03-28T17:58:49.916Z,3.33
2019-03-28T18:01:21.055Z,4.27
2019-03-28T18:03:52.318Z,3.70
2019-03-28T18:06:23.471Z,4.20
2019-03-28T18:08:54.727Z,3.37
2019-03-28T18:11:25.984Z,3.73
2019-03-28T18:13:57.449Z,112.17
2019-03-28T18:16:28.994Z,4.47
2019-03-28T18:19:00.380Z,4.07
2019-03-28T18:21:31.690Z,3.83
2019-03-28T18:24:02.898Z,4.47
2019-03-28T18:26:34.132Z,4.60
2019-03-28T18:29:05.367Z,4.73
2019-03-28T18:31:49.402Z,4.80
2019-03-28T18:34:12.306Z,4.67
2019-03-28T18:36:42.721Z,5.53
2019-03-28T18:39:14.398Z,5.40
2019-03-28T18:41:45.763Z,5.77
2019-03-28T18:44:16.996Z,6.80
2019-03-28T18:46:48.402Z,7.60
2019-03-28T18:49:19.612Z,7.03
2019-03-28T18:51:50.885Z,6.87
2019-03-28T18:54:22.168Z,6.10
2019-03-28T18:56:53.478Z,6.57
2019-03-28T18:59:24.776Z,6.47
2019-03-28T19:01:56.110Z,6.13
2019-03-28T19:04:27.401Z,6.53
2019-03-28T19:06:58.734Z,6.40
2019-03-28T19:09:29.929Z,6.93
2019-03-28T19:12:01.299Z,7.60
2019-03-28T19:14:32.592Z,7.97
2019-03-28T19:17:04.760Z,8.70
2019-03-28T19:19:39.592Z,8.53
2019-03-28T19:22:09.285Z,8.10
2019-03-28T19:24:42.123Z,9.10
2019-03-28T19:27:15.785Z,7.77
2019-03-28T19:29:47.204Z,6.93
2019-03-28T19:32:18.610Z,8.60
2019-03-28T19:34:49.875Z,7.03
2019-03-28T19:37:23.928Z,6.17
2019-03-28T19:39:55.704Z,6.13
2019-03-28T19:42:26.911Z,6.53
2019-03-28T19:44:58.383Z,6.70
2019-03-28T19:47:29.726Z,6.30
2019-03-28T19:50:00.980Z,6.47
2019-03-28T19:52:32.329Z,5.73
2019-03-28T19:55:03.557Z,6.47
2019-03-28T19:57:34.783Z,6.00
2019-03-28T20:00:07.283Z,8.03
2019-03-28T20:02:38.541Z,6.30
2019-03-28T20:05:10.467Z,6.17
2019-03-28T20:07:41.757Z,6.00
2019-03-28T20:10:16.634Z,6.80
2019-03-28T20:12:46.215Z,6.00
2019-03-28T20:15:17.602Z,6.33
2019-03-28T20:17:48.867Z,6.47
2019-03-28T20:20:20.953Z,6.70
2019-03-28T20:22:52.327Z,6.20
2019-03-28T20:25:23.642Z,6.37
2019-03-28T20:27:54.930Z,7.37
2019-03-28T20:30:27.717Z,7.10
2019-03-28T20:33:00.142Z,6.47
2019-03-28T20:35:31.430Z,6.50
2019-03-28T20:38:03.713Z,6.23
2019-03-28T20:40:35.224Z,6.87
2019-03-28T20:43:08.089Z,7.57
2019-03-28T20:45:39.624Z,7.23
2019-03-28T20:48:10.931Z,7.20
2019-03-28T20:50:42.365Z,7.03
2019-03-28T20:53:13.768Z,6.50
2019-03-28T20:55:45.304Z,6.97
2019-03-28T20:58:16.606Z,7.73
2019-03-28T21:00:49.014Z,8.13
2019-03-28T21:03:20.511Z,7.17
2019-03-28T21:05:51.780Z,6.90
2019-03-28T21:08:23.256Z,7.03
2019-03-28T21:10:54.498Z,7.27
2019-03-28T21:13:26.218Z,7.57
2019-03-28T21:15:57.892Z,8.00
2019-03-28T21:18:29.101Z,7.70
2019-03-28T21:21:00.295Z,8.13
2019-03-28T21:23:31.464Z,9.07
2019-03-28T21:26:02.807Z,9.97
2019-03-28T21:28:46.597Z,10.10
2019-03-28T21:31:07.121Z,9.10
2019-03-28T21:33:38.526Z,9.17
2019-03-28T21:36:09.769Z,9.47
2019-03-28T21:38:41.008Z,9.57
2019-03-28T21:41:12.332Z,8.17
2019-03-28T21:43:43.593Z,8.78
2019-03-28T21:46:14.829Z,8.47
2019-03-28T21:48:46.080Z,8.60
2019-03-28T21:51:17.334Z,9.27
2019-03-28T21:53:48.672Z,9.47
2019-03-28T21:56:19.965Z,8.77
2019-03-28T21:58:51.289Z,9.17
2019-03-28T22:01:22.873Z,9.50
2019-03-28T22:03:54.151Z,9.00
2019-03-28T22:06:25.768Z,10.43
2019-03-28T22:08:57.049Z,10.90
2019-03-28T22:11:28.249Z,11.20
2019-03-28T22:13:59.437Z,9.87
2019-03-28T22:16:30.689Z,9.83
2019-03-28T22:19:05.077Z,9.80
2019-03-28T22:21:35.936Z,9.53
2019-03-28T22:24:07.437Z,9.23
2019-03-28T22:26:38.610Z,10.00
2019-03-28T22:29:09.929Z,9.20
2019-03-28T22:31:41.187Z,10.23
2019-03-28T22:34:12.399Z,9.43
2019-03-28T22:36:56.680Z,9.93
2019-03-28T22:39:16.853Z,9.10
2019-03-28T22:41:48.254Z,9.20
2019-03-28T22:44:20.198Z,11.10
2019-03-28T22:46:51.500Z,9.13
2019-03-28T22:49:25.172Z,8.70
2019-03-28T22:51:56.464Z,9.03
2019-03-28T22:54:28.027Z,9.43
2019-03-28T22:56:59.155Z,10.80
2019-03-28T22:59:30.457Z,9.73
2019-03-28T23:02:02.784Z,10.43
2019-03-28T23:04:34.094Z,9.27
2019-03-28T23:07:11.144Z,9.83
2019-03-28T23:09:38.453Z,9.03
2019-03-28T23:12:09.744Z,9.00
2019-03-28T23:14:41.005Z,10.27
2019-03-28T23:17:12.247Z,9.90
2019-03-28T23:19:43.453Z,10.20
2019-03-28T23:22:14.739Z,12.17
2019-03-28T23:24:45.997Z,10.03
2019-03-28T23:27:17.290Z,10.50
2019-03-28T23:29:48.910Z,10.13
2019-03-28T23:32:20.199Z,10.87
2019-03-28T23:34:51.510Z,10.73
2019-03-28T23:37:25.069Z,11.47
2019-03-28T23:39:56.041Z,11.50
2019-03-28T23:42:27.345Z,11.23
2019-03-28T23:44:58.776Z,12.73
2019-03-28T23:47:30.369Z,11.93
2019-03-28T23:50:01.802Z,12.23
2019-03-28T23:52:33.231Z,11.97
2019-03-28T23:55:04.724Z,11.87
2019-03-28T23:57:36.149Z,11.83
